sensor_id;sensor_type;location;lat;lon;timestamp;P1;durP1;ratioP1;P2;durP2;ratioP2
60257;SDS011;46115;44.484;11.314;2022-10-03T00:00:37;5.18;;;1.20;;
60257;SDS011;46115;44.484;11.314;2022-10-03T00:04:47;3.90;;;1.17;;
60257;SDS011;46115;44.484;11.314;2022-10-03T00:09:05;3.97;;;1.30;;
60257;SDS011;46115;44.484;11.314;2022-10-03T00:13:23;5.15;;;1.15;;
60257;SDS011;46115;44.484;11.314;2022-10-03T00:17:37;5.50;;;1.38;;
60257;SDS011;46115;44.484;11.314;2022-10-03T00:21:50;3.25;;;1.08;;
60257;SDS011;46115;44.484;11.314;2022-10-03T00:26:02;2.88;;;1.10;;
60257;SDS011;46115;44.484;11.314;2022-10-03T00:30:22;6.18;;;1.33;;
60257;SDS011;46115;44.484;11.314;2022-10-03T00:34:27;3.63;;;1.40;;
60257;SDS011;46115;44.484;11.314;2022-10-03T00:38:54;3.70;;;1.38;;
60257;SDS011;46115;44.484;11.314;2022-10-03T00:43:18;4.68;;;1.17;;
60257;SDS011;46115;44.484;11.314;2022-10-03T00:47:45;4.63;;;1.17;;
60257;SDS011;46115;44.484;11.314;2022-10-03T00:56:41;4.82;;;1.10;;
60257;SDS011;46115;44.484;11.314;2022-10-03T01:00:56;5.40;;;1.65;;
60257;SDS011;46115;44.484;11.314;2022-10-03T01:05:24;5.07;;;1.38;;
60257;SDS011;46115;44.484;11.314;2022-10-03T01:09:36;3.80;;;1.10;;
60257;SDS011;46115;44.484;11.314;2022-10-03T01:14:01;5.70;;;1.20;;
60257;SDS011;46115;44.484;11.314;2022-10-03T01:18:21;6.25;;;1.42;;
60257;SDS011;46115;44.484;11.314;2022-10-03T01:22:38;3.22;;;1.10;;
60257;SDS011;46115;44.484;11.314;2022-10-03T01:27:01;4.75;;;1.45;;
60257;SDS011;46115;44.484;11.314;2022-10-03T01:31:09;3.80;;;1.20;;
60257;SDS011;46115;44.484;11.314;2022-10-03T01:35:16;3.50;;;1.25;;
60257;SDS011;46115;44.484;11.314;2022-10-03T01:39:30;5.13;;;1.13;;
60257;SDS011;46115;44.484;11.314;2022-10-03T01:43:41;5.88;;;1.20;;
60257;SDS011;46115;44.484;11.314;2022-10-03T01:47:51;5.47;;;1.40;;
60257;SDS011;46115;44.484;11.314;2022-10-03T01:52:02;4.40;;;1.20;;
60257;SDS011;46115;44.484;11.314;2022-10-03T01:56:11;4.18;;;1.10;;
60257;SDS011;46115;44.484;11.314;2022-10-03T02:00:24;4.78;;;1.40;;
60257;SDS011;46115;44.484;11.314;2022-10-03T02:04:36;7.13;;;1.40;;
60257;SDS011;46115;44.484;11.314;2022-10-03T02:08:48;5.72;;;1.48;;
60257;SDS011;46115;44.484;11.314;2022-10-03T02:12:59;5.35;;;1.40;;
60257;SDS011;46115;44.484;11.314;2022-10-03T02:17:09;6.22;;;1.45;;
60257;SDS011;46115;44.484;11.314;2022-10-03T02:21:24;5.00;;;1.30;;
60257;SDS011;46115;44.484;11.314;2022-10-03T02:25:34;5.43;;;1.50;;
60257;SDS011;46115;44.484;11.314;2022-10-03T02:34:18;3.50;;;1.10;;
60257;SDS011;46115;44.484;11.314;2022-10-03T02:38:32;6.20;;;1.52;;
60257;SDS011;46115;44.484;11.314;2022-10-03T02:42:58;5.97;;;1.30;;
60257;SDS011;46115;44.484;11.314;2022-10-03T02:47:34;5.35;;;1.20;;
60257;SDS011;46115;44.484;11.314;2022-10-03T02:52:12;6.85;;;1.35;;
60257;SDS011;46115;44.484;11.314;2022-10-03T03:01:35;3.42;;;1.15;;
60257;SDS011;46115;44.484;11.314;2022-10-03T03:05:58;3.00;;;1.20;;
60257;SDS011;46115;44.484;11.314;2022-10-03T03:10:32;7.50;;;1.40;;
60257;SDS011;46115;44.484;11.314;2022-10-03T03:15:25;5.47;;;1.40;;
60257;SDS011;46115;44.484;11.314;2022-10-03T03:24:31;3.53;;;1.40;;
60257;SDS011;46115;44.484;11.314;2022-10-03T03:28:51;7.38;;;1.50;;
60257;SDS011;46115;44.484;11.314;2022-10-03T03:33:04;7.18;;;1.10;;
60257;SDS011;46115;44.484;11.314;2022-10-03T03:37:17;3.75;;;1.15;;
60257;SDS011;46115;44.484;11.314;2022-10-03T03:41:30;2.35;;;1.20;;
60257;SDS011;46115;44.484;11.314;2022-10-03T03:45:53;4.18;;;1.48;;
60257;SDS011;46115;44.484;11.314;2022-10-03T03:50:12;3.75;;;1.15;;
60257;SDS011;46115;44.484;11.314;2022-10-03T03:54:43;3.28;;;1.35;;
60257;SDS011;46115;44.484;11.314;2022-10-03T03:59:03;3.78;;;1.20;;
60257;SDS011;46115;44.484;11.314;2022-10-03T04:03:23;4.75;;;1.02;;
60257;SDS011;46115;44.484;11.314;2022-10-03T04:07:38;4.00;;;1.30;;
60257;SDS011;46115;44.484;11.314;2022-10-03T04:11:54;7.20;;;1.30;;
60257;SDS011;46115;44.484;11.314;2022-10-03T04:16:20;3.13;;;1.02;;
60257;SDS011;46115;44.484;11.314;2022-10-03T04:20:56;4.97;;;1.35;;
60257;SDS011;46115;44.484;11.314;2022-10-03T04:29:49;6.00;;;1.27;;
60257;SDS011;46115;44.484;11.314;2022-10-03T04:34:05;4.78;;;1.30;;
60257;SDS011;46115;44.484;11.314;2022-10-03T04:38:20;4.22;;;1.40;;
60257;SDS011;46115;44.484;11.314;2022-10-03T04:42:37;3.80;;;1.10;;
60257;SDS011;46115;44.484;11.314;2022-10-03T04:50:56;6.40;;;1.48;;
60257;SDS011;46115;44.484;11.314;2022-10-03T04:55:14;4.47;;;1.40;;
60257;SDS011;46115;44.484;11.314;2022-10-03T04:59:28;4.50;;;1.42;;
60257;SDS011;46115;44.484;11.314;2022-10-03T05:03:45;2.83;;;1.30;;
60257;SDS011;46115;44.484;11.314;2022-10-03T05:07:58;7.07;;;1.75;;
60257;SDS011;46115;44.484;11.314;2022-10-03T05:12:09;4.65;;;1.30;;
60257;SDS011;46115;44.484;11.314;2022-10-03T05:16:19;4.28;;;1.58;;
60257;SDS011;46115;44.484;11.314;2022-10-03T05:20:38;5.88;;;1.40;;
60257;SDS011;46115;44.484;11.314;2022-10-03T05:24:49;5.20;;;1.48;;
60257;SDS011;46115;44.484;11.314;2022-10-03T05:29:03;6.60;;;1.38;;
60257;SDS011;46115;44.484;11.314;2022-10-03T05:33:16;2.65;;;1.20;;
60257;SDS011;46115;44.484;11.314;2022-10-03T05:46:43;3.80;;;1.40;;
60257;SDS011;46115;44.484;11.314;2022-10-03T05:51:33;4.28;;;1.30;;
60257;SDS011;46115;44.484;11.314;2022-10-03T05:55:51;5.68;;;1.95;;
60257;SDS011;46115;44.484;11.314;2022-10-03T06:00:04;4.45;;;1.30;;
60257;SDS011;46115;44.484;11.314;2022-10-03T06:04:21;8.20;;;1.50;;
60257;SDS011;46115;44.484;11.314;2022-10-03T06:08:55;6.53;;;1.45;;
60257;SDS011;46115;44.484;11.314;2022-10-03T06:13:26;5.32;;;1.60;;
60257;SDS011;46115;44.484;11.314;2022-10-03T06:17:46;4.75;;;1.35;;
60257;SDS011;46115;44.484;11.314;2022-10-03T06:22:09;3.95;;;1.20;;
60257;SDS011;46115;44.484;11.314;2022-10-03T06:41:16;3.17;;;1.05;;
60257;SDS011;46115;44.484;11.314;2022-10-03T06:50:23;6.45;;;1.50;;
60257;SDS011;46115;44.484;11.314;2022-10-03T06:54:57;3.83;;;1.30;;
60257;SDS011;46115;44.484;11.314;2022-10-03T07:04:17;5.95;;;1.25;;
60257;SDS011;46115;44.484;11.314;2022-10-03T07:08:37;6.38;;;1.45;;
60257;SDS011;46115;44.484;11.314;2022-10-03T07:13:14;5.22;;;1.23;;
60257;SDS011;46115;44.484;11.314;2022-10-03T07:17:52;5.13;;;1.40;;
60257;SDS011;46115;44.484;11.314;2022-10-03T07:27:05;4.05;;;1.67;;
60257;SDS011;46115;44.484;11.314;2022-10-03T07:31:23;4.55;;;1.25;;
60257;SDS011;46115;44.484;11.314;2022-10-03T07:45:01;8.23;;;2.10;;
60257;SDS011;46115;44.484;11.314;2022-10-03T07:58:34;4.05;;;1.50;;
60257;SDS011;46115;44.484;11.314;2022-10-03T08:07:37;5.65;;;1.75;;
60257;SDS011;46115;44.484;11.314;2022-10-03T08:12:04;5.03;;;1.80;;
60257;SDS011;46115;44.484;11.314;2022-10-03T08:16:37;6.97;;;1.77;;
60257;SDS011;46115;44.484;11.314;2022-10-03T08:20:52;5.03;;;1.77;;
60257;SDS011;46115;44.484;11.314;2022-10-03T08:25:13;5.40;;;1.80;;
60257;SDS011;46115;44.484;11.314;2022-10-03T08:29:31;4.50;;;1.92;;
60257;SDS011;46115;44.484;11.314;2022-10-03T08:33:59;4.88;;;1.80;;
60257;SDS011;46115;44.484;11.314;2022-10-03T08:52:02;6.25;;;2.20;;
60257;SDS011;46115;44.484;11.314;2022-10-03T08:56:16;5.30;;;2.00;;
60257;SDS011;46115;44.484;11.314;2022-10-03T09:00:23;4.68;;;1.95;;
60257;SDS011;46115;44.484;11.314;2022-10-03T09:09:05;5.75;;;2.00;;
60257;SDS011;46115;44.484;11.314;2022-10-03T09:13:37;5.43;;;2.40;;
60257;SDS011;46115;44.484;11.314;2022-10-03T09:18:13;4.80;;;2.13;;
60257;SDS011;46115;44.484;11.314;2022-10-03T09:22:50;5.90;;;2.10;;
60257;SDS011;46115;44.484;11.314;2022-10-03T09:55:35;8.73;;;2.47;;
60257;SDS011;46115;44.484;11.314;2022-10-03T10:04:39;10.23;;;2.53;;
60257;SDS011;46115;44.484;11.314;2022-10-03T10:18:35;8.38;;;2.47;;
60257;SDS011;46115;44.484;11.314;2022-10-03T10:23:06;8.63;;;2.90;;
60257;SDS011;46115;44.484;11.314;2022-10-03T10:27:30;12.45;;;3.20;;
60257;SDS011;46115;44.484;11.314;2022-10-03T10:36:55;8.43;;;3.17;;
60257;SDS011;46115;44.484;11.314;2022-10-03T10:41:26;8.20;;;2.72;;
60257;SDS011;46115;44.484;11.314;2022-10-03T11:00:29;10.55;;;3.28;;
60257;SDS011;46115;44.484;11.314;2022-10-03T11:09:50;10.50;;;3.20;;
60257;SDS011;46115;44.484;11.314;2022-10-03T11:14:20;9.30;;;3.13;;
60257;SDS011;46115;44.484;11.314;2022-10-03T11:18:49;7.57;;;2.40;;
60257;SDS011;46115;44.484;11.314;2022-10-03T11:23:24;8.70;;;2.67;;
60257;SDS011;46115;44.484;11.314;2022-10-03T11:27:54;8.98;;;2.45;;
60257;SDS011;46115;44.484;11.314;2022-10-03T11:37:28;11.63;;;2.10;;
60257;SDS011;46115;44.484;11.314;2022-10-03T11:41:45;6.10;;;1.83;;
60257;SDS011;46115;44.484;11.314;2022-10-03T11:45:53;7.57;;;2.00;;
60257;SDS011;46115;44.484;11.314;2022-10-03T11:50:13;7.78;;;2.20;;
60257;SDS011;46115;44.484;11.314;2022-10-03T11:54:29;7.78;;;2.30;;
60257;SDS011;46115;44.484;11.314;2022-10-03T11:58:49;11.43;;;2.20;;
60257;SDS011;46115;44.484;11.314;2022-10-03T12:03:11;7.68;;;2.17;;
60257;SDS011;46115;44.484;11.314;2022-10-03T12:07:23;7.78;;;2.15;;
60257;SDS011;46115;44.484;11.314;2022-10-03T12:11:57;11.13;;;2.45;;
60257;SDS011;46115;44.484;11.314;2022-10-03T12:16:11;10.15;;;2.78;;
60257;SDS011;46115;44.484;11.314;2022-10-03T12:20:28;8.65;;;2.65;;
60257;SDS011;46115;44.484;11.314;2022-10-03T12:24:39;9.63;;;2.60;;
60257;SDS011;46115;44.484;11.314;2022-10-03T12:28:44;6.13;;;2.30;;
60257;SDS011;46115;44.484;11.314;2022-10-03T12:33:05;10.20;;;2.58;;
60257;SDS011;46115;44.484;11.314;2022-10-03T12:37:22;10.93;;;2.45;;
60257;SDS011;46115;44.484;11.314;2022-10-03T12:41:49;8.88;;;2.60;;
60257;SDS011;46115;44.484;11.314;2022-10-03T12:46:04;8.98;;;2.22;;
60257;SDS011;46115;44.484;11.314;2022-10-03T12:50:16;10.80;;;2.40;;
60257;SDS011;46115;44.484;11.314;2022-10-03T12:54:34;11.15;;;2.67;;
60257;SDS011;46115;44.484;11.314;2022-10-03T12:58:48;8.30;;;2.00;;
60257;SDS011;46115;44.484;11.314;2022-10-03T13:03:09;8.35;;;2.15;;
60257;SDS011;46115;44.484;11.314;2022-10-03T13:07:24;6.88;;;2.35;;
60257;SDS011;46115;44.484;11.314;2022-10-03T13:11:34;9.68;;;2.58;;
60257;SDS011;46115;44.484;11.314;2022-10-03T13:20:22;8.07;;;2.17;;
60257;SDS011;46115;44.484;11.314;2022-10-03T13:24:30;10.90;;;2.33;;
60257;SDS011;46115;44.484;11.314;2022-10-03T13:28:44;6.95;;;2.35;;
60257;SDS011;46115;44.484;11.314;2022-10-03T13:32:59;10.13;;;2.53;;
60257;SDS011;46115;44.484;11.314;2022-10-03T13:37:11;11.10;;;2.40;;
60257;SDS011;46115;44.484;11.314;2022-10-03T13:41:25;7.88;;;2.50;;
60257;SDS011;46115;44.484;11.314;2022-10-03T13:45:31;9.57;;;2.40;;
60257;SDS011;46115;44.484;11.314;2022-10-03T13:49:35;11.60;;;2.72;;
60257;SDS011;46115;44.484;11.314;2022-10-03T13:53:53;8.32;;;2.65;;
60257;SDS011;46115;44.484;11.314;2022-10-03T13:58:13;8.43;;;2.67;;
60257;SDS011;46115;44.484;11.314;2022-10-03T14:02:32;11.32;;;2.90;;
60257;SDS011;46115;44.484;11.314;2022-10-03T14:06:58;7.88;;;2.50;;
60257;SDS011;46115;44.484;11.314;2022-10-03T14:11:16;8.90;;;2.50;;
60257;SDS011;46115;44.484;11.314;2022-10-03T14:15:25;9.02;;;2.50;;
60257;SDS011;46115;44.484;11.314;2022-10-03T14:19:36;10.40;;;2.40;;
60257;SDS011;46115;44.484;11.314;2022-10-03T14:23:46;12.30;;;2.78;;
60257;SDS011;46115;44.484;11.314;2022-10-03T14:28:01;12.88;;;2.50;;
60257;SDS011;46115;44.484;11.314;2022-10-03T14:32:16;9.38;;;2.30;;
60257;SDS011;46115;44.484;11.314;2022-10-03T14:36:28;8.70;;;2.50;;
60257;SDS011;46115;44.484;11.314;2022-10-03T14:40:37;8.82;;;2.40;;
60257;SDS011;46115;44.484;11.314;2022-10-03T14:44:49;11.50;;;2.35;;
60257;SDS011;46115;44.484;11.314;2022-10-03T14:48:56;9.55;;;2.30;;
60257;SDS011;46115;44.484;11.314;2022-10-03T14:53:04;9.45;;;2.85;;
60257;SDS011;46115;44.484;11.314;2022-10-03T14:57:18;9.00;;;2.60;;
60257;SDS011;46115;44.484;11.314;2022-10-03T15:01:37;9.07;;;2.40;;
60257;SDS011;46115;44.484;11.314;2022-10-03T15:05:55;6.80;;;2.20;;
60257;SDS011;46115;44.484;11.314;2022-10-03T15:10:01;12.00;;;2.90;;
60257;SDS011;46115;44.484;11.314;2022-10-03T15:14:08;10.48;;;2.70;;
60257;SDS011;46115;44.484;11.314;2022-10-03T15:18:13;6.97;;;2.30;;
60257;SDS011;46115;44.484;11.314;2022-10-03T15:22:21;10.40;;;2.40;;
60257;SDS011;46115;44.484;11.314;2022-10-03T15:26:31;9.20;;;2.45;;
60257;SDS011;46115;44.484;11.314;2022-10-03T15:30:37;9.23;;;2.55;;
60257;SDS011;46115;44.484;11.314;2022-10-03T15:34:42;7.40;;;2.13;;
60257;SDS011;46115;44.484;11.314;2022-10-03T15:38:50;9.88;;;2.60;;
60257;SDS011;46115;44.484;11.314;2022-10-03T15:43:00;6.10;;;2.20;;
60257;SDS011;46115;44.484;11.314;2022-10-03T15:47:07;9.43;;;2.38;;
60257;SDS011;46115;44.484;11.314;2022-10-03T15:51:17;5.05;;;1.92;;
60257;SDS011;46115;44.484;11.314;2022-10-03T15:55:24;7.05;;;2.50;;
60257;SDS011;46115;44.484;11.314;2022-10-03T15:59:32;7.53;;;2.20;;
60257;SDS011;46115;44.484;11.314;2022-10-03T16:03:39;6.32;;;2.22;;
60257;SDS011;46115;44.484;11.314;2022-10-03T16:07:50;6.60;;;2.40;;
60257;SDS011;46115;44.484;11.314;2022-10-03T16:12:04;7.22;;;2.28;;
60257;SDS011;46115;44.484;11.314;2022-10-03T16:16:17;6.22;;;2.67;;
60257;SDS011;46115;44.484;11.314;2022-10-03T16:20:24;7.90;;;2.40;;
60257;SDS011;46115;44.484;11.314;2022-10-03T16:24:33;6.88;;;2.35;;
60257;SDS011;46115;44.484;11.314;2022-10-03T16:28:42;8.48;;;2.60;;
60257;SDS011;46115;44.484;11.314;2022-10-03T16:32:52;9.13;;;2.40;;
60257;SDS011;46115;44.484;11.314;2022-10-03T16:37:02;6.13;;;2.25;;
60257;SDS011;46115;44.484;11.314;2022-10-03T16:41:18;6.55;;;2.22;;
60257;SDS011;46115;44.484;11.314;2022-10-03T16:45:24;4.68;;;2.20;;
60257;SDS011;46115;44.484;11.314;2022-10-03T16:49:35;12.82;;;3.20;;
60257;SDS011;46115;44.484;11.314;2022-10-03T16:53:58;7.93;;;2.40;;
60257;SDS011;46115;44.484;11.314;2022-10-03T16:58:04;7.03;;;2.65;;
60257;SDS011;46115;44.484;11.314;2022-10-03T17:02:18;7.78;;;2.80;;
60257;SDS011;46115;44.484;11.314;2022-10-03T17:06:25;6.55;;;2.80;;
60257;SDS011;46115;44.484;11.314;2022-10-03T17:10:32;7.07;;;2.70;;
60257;SDS011;46115;44.484;11.314;2022-10-03T17:14:39;7.45;;;2.83;;
60257;SDS011;46115;44.484;11.314;2022-10-03T17:18:45;6.97;;;3.03;;
60257;SDS011;46115;44.484;11.314;2022-10-03T17:23:02;8.82;;;2.80;;
60257;SDS011;46115;44.484;11.314;2022-10-03T22:06:10;10.02;;;5.13;;
60257;SDS011;46115;44.484;11.314;2022-10-03T22:10:20;10.38;;;4.70;;
60257;SDS011;46115;44.484;11.314;2022-10-03T22:14:28;9.18;;;4.82;;
60257;SDS011;46115;44.484;11.314;2022-10-03T22:18:53;9.85;;;4.75;;
60257;SDS011;46115;44.484;11.314;2022-10-03T22:23:08;8.88;;;4.82;;
60257;SDS011;46115;44.484;11.314;2022-10-03T22:27:22;9.00;;;4.78;;
60257;SDS011;46115;44.484;11.314;2022-10-03T22:31:33;7.70;;;4.10;;
60257;SDS011;46115;44.484;11.314;2022-10-03T22:35:45;11.50;;;4.30;;
60257;SDS011;46115;44.484;11.314;2022-10-03T22:39:53;7.57;;;4.23;;
60257;SDS011;46115;44.484;11.314;2022-10-03T22:43:59;6.95;;;4.05;;
60257;SDS011;46115;44.484;11.314;2022-10-03T22:48:08;8.48;;;4.20;;
60257;SDS011;46115;44.484;11.314;2022-10-03T22:52:15;8.77;;;4.15;;
60257;SDS011;46115;44.484;11.314;2022-10-03T22:56:38;9.63;;;4.40;;
60257;SDS011;46115;44.484;11.314;2022-10-03T23:00:45;10.23;;;4.10;;
60257;SDS011;46115;44.484;11.314;2022-10-03T23:04:51;6.30;;;4.45;;
60257;SDS011;46115;44.484;11.314;2022-10-03T23:08:59;5.78;;;3.90;;
60257;SDS011;46115;44.484;11.314;2022-10-03T23:13:12;7.85;;;4.15;;
60257;SDS011;46115;44.484;11.314;2022-10-03T23:17:27;10.55;;;4.35;;
60257;SDS011;46115;44.484;11.314;2022-10-03T23:21:44;8.25;;;3.88;;
60257;SDS011;46115;44.484;11.314;2022-10-03T23:25:50;6.90;;;4.13;;
60257;SDS011;46115;44.484;11.314;2022-10-03T23:35:09;7.30;;;4.22;;
60257;SDS011;46115;44.484;11.314;2022-10-03T23:39:28;6.68;;;4.30;;
60257;SDS011;46115;44.484;11.314;2022-10-03T23:43:33;8.48;;;4.20;;
60257;SDS011;46115;44.484;11.314;2022-10-03T23:47:40;9.73;;;4.25;;
60257;SDS011;46115;44.484;11.314;2022-10-03T23:51:46;7.18;;;4.07;;
60257;SDS011;46115;44.484;11.314;2022-10-03T23:55:49;9.10;;;3.95;;
60257;SDS011;46115;44.484;11.314;2022-10-03T23:59:52;7.55;;;3.80;;
